Historical Weather Data

Kanab, UT VWS

Date ET
(Inches)
Rain
(Inches)
Temp °F
Humidity
Avg
Wind MPH
Avg
Solar Wm2
Avg
High Ave Low
07/01/2019 12:00 am 0.267 0.00 92.0 76.1 59.0 32 2.6 380
07/02/2019 12:00 am 0.279 0.00 91.0 76.6 58.0 21 2.9 386
07/03/2019 12:00 am 0.297 0.00 90.0 74.5 56.0 19 4.1 387
07/04/2019 12:00 am 0.287 0.00 90.0 73.8 55.0 17 3.5 389
07/05/2019 12:00 am 0.268 0.00 90.0 74.3 56.0 18 2.5 388
07/06/2019 12:00 am 0.268 0.00 91.0 75.7 55.0 18 2.6 382
07/07/2019 12:00 am 0.289 0.00 88.0 74.3 56.0 19 3.9 372
07/08/2019 12:00 am 0.279 0.00 87.0 72.9 54.0 19 3.2 387
07/09/2019 12:00 am 0.262 0.00 91.0 73.9 54.0 18 2.4 387
07/10/2019 12:00 am 0.264 0.00 94.0 78.0 57.0 19 2.3 378
07/11/2019 12:00 am 0.271 0.00 98.0 79.2 62.0 24 2.6 366
07/12/2019 12:00 am 0.260 0.00 96.0 80.5 66.0 26 2.4 354
07/13/2019 12:00 am 0.247 0.00 93.0 79.6 70.0 31 2.2 342
07/14/2019 12:00 am 0.262 0.00 95.0 80.4 65.0 30 2.4 363
07/15/2019 12:00 am 0.281 0.00 96.0 81.2 63.0 24 2.7 378
07/16/2019 12:00 am 0.311 0.00 96.0 81.0 61.0 16 4.0 380
07/17/2019 12:00 am 0.307 0.00 94.0 79.5 59.0 17 4.4 372
07/18/2019 12:00 am 0.302 0.00 93.0 78.3 59.0 21 3.9 376
07/19/2019 12:00 am 0.293 0.00 94.0 78.7 59.0 20 3.4 370
07/20/2019 12:00 am 0.295 0.00 93.0 75.7 56.0 14 3.7 365
07/21/2019 12:00 am 0.041 0.00 74.0 64.3 60.0 27 1.5 198
07/22/2019 12:00 am 0.243 0.00 96.0 88.3 76.0 16 4.4 421
07/23/2019 12:00 am 0.239 0.00 95.0 78.4 65.0 31 2.2 326
07/24/2019 12:00 am 0.177 0.00 89.0 76.7 64.0 44 2.2 232
07/25/2019 12:00 am 0.219 0.00 92.0 78.2 64.0 47 2.2 301
07/26/2019 12:00 am 0.231 0.00 86.5 76.4 66.0 47 2.9 316
07/27/2019 12:00 am 0.261 0.00 92.0 79.3 65.3 42 3.2 346
07/28/2019 12:00 am 0.243 0.00 95.0 81.8 66.0 32 2.1 350
07/29/2019 12:00 am 0.266 0.00 95.0 81.5 64.0 25 2.8 353
07/30/2019 12:00 am 0.231 0.00 91.0 78.6 67.0 29 2.5 301
07/31/2019 12:00 am 0.085 0.09 78.0 70.3 64.0 59 1.9 95